Flight Track Log - Related Links

Times and Time Zones

All times are in EDT time to prevent confusion due to time zone crossing. See the UAL1202 flight status page for this flight to view local times or setup timezone preferences in your user account.

Time Position Orientation Groundspeed Altitude Reporting Facility
EDT Latitude Longitude Course Direction KTS MPH feet Rate Location/Type
Mon 07:51:38 PM 37.6100 -122.3790 58° Northeast 100 115  Level FlightAware ADS-B
Mon 07:51:40 PM 37.6100 -122.3780 90° East 100 115 286 Level FlightAware ADS-B
Mon 07:51:59 PM 37.6240 -122.3700 24° Northeast 187 215 100 1,385 Climbing FlightAware ADS-B
Mon 07:52:06 PM 37.6286 -122.3660 35° Northeast 180 207 600 4,500 Climbing FlightAware ADS-B
Mon 07:52:11 PM 37.6322 -122.3620 41° Northeast 183 211 1,000 4,286 Climbing FlightAware ADS-B
Mon 07:52:20 PM 37.6377 -122.3560 41° Northeast 182 209 1,600 3,391 Climbing FlightAware ADS-B
Mon 07:52:34 PM 37.6466 -122.3450 44° Northeast 192 221 2,300 2,516 Climbing FlightAware ADS-B
Mon 07:52:51 PM 37.6577 -122.3320 43° Northeast 205 236 2,900 2,100 Climbing FlightAware ADS-B
Mon 07:52:54 PM 37.6600 -122.3290 46° Northeast 208 239 3,000 2,308 Climbing FlightAware ADS-B
Mon 07:53:04 PM 37.6670 -122.3210 42° Northeast 214 246 3,400 2,222 Climbing FlightAware ADS-B
Mon 07:53:21 PM 37.6788 -122.3050 47° Northeast 231 266 4,000 2,129 Climbing FlightAware ADS-B
Mon 07:53:35 PM 37.6897 -122.2900 47° Northeast 245 282 4,500 2,323 Climbing FlightAware ADS-B
Mon 07:53:52 PM 37.7026 -122.2730 46° Northeast 258 297 5,200 2,063 Climbing FlightAware ADS-B
Mon 07:54:07 PM 37.7158 -122.2550 47° Northeast 279 321 5,600 2,471 Climbing FlightAware ADS-B
Mon 07:54:26 PM 37.7328 -122.2330 46° Northeast 286 329 6,600 3,188 Climbing FlightAware ADS-B
Mon 07:54:39 PM 37.7449 -122.2170 46° Northeast 288 331 7,300 3,120 Climbing FlightAware ADS-B
Mon 07:54:51 PM 37.7563 -122.2030 44° Northeast 289 333 7,900 3,200 Climbing FlightAware ADS-B
Mon 07:54:54 PM 37.7606 -122.1990 36° Northeast 291 335 8,100 3,000 Climbing FlightAware ADS-B
Mon 07:54:59 PM 37.7662 -122.1950 29° Northeast 293 337 8,300 2,400 Climbing FlightAware ADS-B
Mon 07:55:04 PM 37.7727 -122.1920 20° North 296 341 8,500 2,000 Climbing FlightAware ADS-B
Mon 07:55:08 PM 37.7777 -122.1910 North 298 343 8,600 2,769 Climbing FlightAware ADS-B
Mon 07:55:17 PM 37.7901 -122.1900 North 299 344 9,100 3,231 Climbing FlightAware ADS-B
Mon 07:55:21 PM 37.7955 -122.1900 360° North 300 345 9,300 2,880 Climbing FlightAware ADS-B
Mon 07:55:42 PM 37.8250 -122.1900 360° North 307 353 10,300 1,765 Climbing FlightAware ADS-B
Mon 07:56:12 PM 37.8714 -122.1920 358° North 349 402 10,800 1,279 Climbing FlightAware ADS-B
Mon 07:56:43 PM 37.9239 -122.1930 359° North 379 436 11,600 2,123 Climbing FlightAware ADS-B
Mon 07:57:17 PM 37.9840 -122.1940 359° North 390 449 13,100 2,789 Climbing FlightAware ADS-B
Mon 07:57:54 PM 38.0508 -122.1950 359° North 390 449 14,900 2,687 Climbing FlightAware ADS-B
Mon 07:58:24 PM 38.1062 -122.1960 359° North 401 461 16,100 2,219 Climbing FlightAware ADS-B
Mon 07:59:07 PM 38.1873 -122.1980 359° North 406 467 17,600 2,225 Climbing FlightAware ADS-B
Mon 07:59:53 PM 38.2770 -122.2000 359° North 427 491 19,400 2,286 Climbing FlightAware ADS-B
Mon 08:00:31 PM 38.3530 -122.2020 359° North 436 502 20,800 2,087 Climbing FlightAware ADS-B
Mon 08:01:02 PM 38.4150 -122.2030 359° North 445 512 21,800 1,941 Climbing FlightAware ADS-B
Mon 08:01:39 PM 38.4940 -122.2040 359° North 456 525 23,000 1,895 Climbing FlightAware ADS-B
Mon 08:01:59 PM 38.5360 -122.2050 359° North 462 532 23,600 1,853 Climbing FlightAware ADS-B
Mon 08:02:47 PM 38.6380 -122.2070 359° North 469 540 25,100 1,769 Climbing FlightAware ADS-B
Mon 08:03:17 PM 38.7050 -122.2100 358° North 475 547 25,900 1,676 Climbing FlightAware ADS-B
Mon 08:03:55 PM 38.7890 -122.2150 357° North 478 550 27,000 1,703 Climbing FlightAware ADS-B
Mon 08:04:31 PM 38.8700 -122.2190 358° North 482 555 28,000 1,457 Climbing FlightAware ADS-B
Mon 08:05:05 PM 38.9450 -122.2220 358° North 488 562 28,700 1,500 Climbing FlightAware ADS-B
Mon 08:05:43 PM 39.0320 -122.2270 357° North 488 562 29,800 1,629 Climbing FlightAware ADS-B
Mon 08:06:15 PM 39.1030 -122.2300 358° North 489 563 30,600 1,500 Climbing FlightAware ADS-B
Mon 08:06:47 PM 39.1760 -122.2330 358° North 489 563 31,400 1,457 Climbing FlightAware ADS-B
Mon 08:07:25 PM 39.2620 -122.2380 357° North 488 562 32,300 1,459 Climbing FlightAware ADS-B
Mon 08:08:01 PM 39.3390 -122.2420 358° North 486 559 33,200 1,562 Climbing FlightAware ADS-B
Mon 08:08:38 PM 39.4210 -122.2460 358° North 481 554 34,200 1,588 Climbing FlightAware ADS-B
Mon 08:09:09 PM 39.4940 -122.2490 358° North 479 551 35,000 1,343 Climbing FlightAware ADS-B
Mon 08:09:45 PM 39.5750 -122.2530 358° North 480 552 35,700 833 Climbing FlightAware ADS-B
Mon 08:10:21 PM 39.6550 -122.2570 358° North 482 555 36,000 250 Climbing FlightAware ADS-B
Mon 08:10:57 PM 39.7330 -122.2610 358° North 482 555 36,000  Level FlightAware ADS-B
Mon 08:11:31 PM 39.8100 -122.2650 358° North 482 555 36,000  Level FlightAware ADS-B
Mon 08:12:07 PM 39.8900 -122.2690 358° North 482 555 36,000 250 Level FlightAware ADS-B
Mon 08:12:43 PM 39.9720 -122.2730 358° North 481 554 36,300 771 Climbing FlightAware ADS-B
Mon 08:13:17 PM 40.0460 -122.2770 358° North 480 552 36,900 1,000 Climbing FlightAware ADS-B
Mon 08:13:49 PM 40.1160 -122.2800 358° North 480 552 37,400 806 Climbing FlightAware ADS-B
Mon 08:14:24 PM 40.1950 -122.2840 358° North 483 556 37,800 514 Climbing FlightAware ADS-B
Mon 08:14:59 PM 40.2720 -122.2880 358° North 486 559 38,000 169 Climbing FlightAware ADS-B
Mon 08:15:35 PM 40.3520 -122.2920 358° North 480 552 38,000  Level FlightAware ADS-B
Mon 08:16:10 PM 40.4290 -122.2960 358° North 482 555 38,000  Level FlightAware ADS-B
Mon 08:16:44 PM 40.5110 -122.3000 358° North 483 556 38,000  Level FlightAware ADS-B
Mon 08:17:19 PM 40.5890 -122.3040 358° North 483 556 38,000  Level FlightAware ADS-B
Mon 08:17:55 PM 40.6690 -122.3080 358° North 481 554 38,000  Level FlightAware ADS-B
Mon 08:18:30 PM 40.7480 -122.3120 358° North 486 559 38,000  Level FlightAware ADS-B
Mon 08:19:06 PM 40.8290 -122.3170 357° North 485 558 38,000  Level FlightAware ADS-B
Mon 08:19:41 PM 40.9050 -122.3210 358° North 486 559 38,000  Level FlightAware ADS-B
Mon 08:20:16 PM 40.9850 -122.3250 358° North 486 559 38,000  Level FlightAware ADS-B
Mon 08:20:50 PM 41.0630 -122.3290 358° North 485 558 38,000  Level FlightAware ADS-B
Mon 08:21:25 PM 41.1370 -122.3330 358° North 485 558 38,000  Level FlightAware ADS-B
Mon 08:22:00 PM 41.2200 -122.3370 358° North 485 558 38,000  Level FlightAware ADS-B
Mon 08:22:41 PM 41.3100 -122.3420 358° North 484 557 38,000  Level FlightAware ADS-B
Mon 08:23:15 PM 41.3790 -122.3450 358° North 483 556 38,000  Level FlightAware ADS-B
Mon 08:23:51 PM 41.4610 -122.3500 357° North 483 556 38,000  Level FlightAware ADS-B
Mon 08:24:30 PM 41.5480 -122.3550 358° North 484 557 38,000  Level FlightAware ADS-B
Mon 08:25:06 PM 41.6310 -122.3590 358° North 484 557 38,000  Level FlightAware ADS-B
Mon 08:25:42 PM 41.7130 -122.3630 358° North 484 557 38,000  Level FlightAware ADS-B
Mon 08:26:18 PM 41.7950 -122.3680 357° North 486 559 38,000  Level FlightAware ADS-B
Mon 08:26:54 PM 41.8760 -122.3720 358° North 488 562 38,000  Level FlightAware ADS-B
Mon 08:27:36 PM 41.9700 -122.3760 358° North 491 565 38,000  Level FlightAware ADS-B
Mon 08:28:07 PM 42.0350 -122.3800 357° North 491 565 38,000  Level FlightAware ADS-B
Mon 08:28:44 PM 42.1200 -122.3840 358° North 491 565 38,000  Level FlightAware ADS-B
Mon 08:29:19 PM 42.2010 -122.3890 357° North 494 568 38,000  Level FlightAware ADS-B
Mon 08:29:55 PM 42.2860 -122.3930 358° North 494 568 38,000  Level FlightAware ADS-B
Mon 08:30:32 PM 42.3680 -122.3980 357° North 493 567 38,000  Level FlightAware ADS-B
Mon 08:31:06 PM 42.4470 -122.4020 358° North 494 568 38,000  Level FlightAware ADS-B
Mon 08:31:36 PM 42.5150 -122.4060 358° North 493 567 38,000  Level FlightAware ADS-B
Mon 08:32:14 PM 42.5970 -122.4110 357° North 494 568 38,000  Level FlightAware ADS-B
Mon 08:32:52 PM 42.6900 -122.4160 358° North 492 566 38,000  Level FlightAware ADS-B
Mon 08:33:29 PM 42.7720 -122.4210 357° North 491 565 38,000  Level FlightAware ADS-B
Mon 08:34:01 PM 42.8470 -122.4250 358° North 491 565 38,000  Level FlightAware ADS-B
Mon 08:34:35 PM 42.9240 -122.4290 358° North 491 565 38,000  Level FlightAware ADS-B
Mon 08:35:11 PM 43.0060 -122.4330 358° North 491 565 38,000  Level FlightAware ADS-B
Mon 08:35:47 PM 43.0890 -122.4380 357° North 492 566 38,000  Level FlightAware ADS-B
Mon 08:36:24 PM 43.1690 -122.4420 358° North 491 565 38,000  Level FlightAware ADS-B
Mon 08:37:00 PM 43.2530 -122.4460 358° North 491 565 38,000  Level FlightAware ADS-B
Mon 08:37:36 PM 43.3350 -122.4510 357° North 491 565 38,000  Level FlightAware ADS-B
Mon 08:38:10 PM 43.4120 -122.4560 357° North 491 565 38,000  Level FlightAware ADS-B
Mon 08:38:47 PM 43.4950 -122.4600 358° North 491 565 38,000  Level FlightAware ADS-B
Mon 08:39:24 PM 43.5850 -122.4660 357° North 491 565 38,000  Level FlightAware ADS-B
Mon 08:39:56 PM 43.6590 -122.4700 358° North 491 565 38,000  Level FlightAware ADS-B
Mon 08:40:34 PM 43.7440 -122.4750 358° North 491 565 38,000  Level FlightAware ADS-B
Mon 08:41:10 PM 43.8260 -122.4800 357° North 491 565 38,000  Level FlightAware ADS-B
Mon 08:41:44 PM 43.9030 -122.4840 358° North 491 565 38,000  Level FlightAware ADS-B
Mon 08:42:20 PM 43.9840 -122.4890 357° North 491 565 38,000  Level FlightAware ADS-B
Mon 08:42:54 PM 44.0630 -122.4930 358° North 492 566 38,000  Level FlightAware ADS-B
Mon 08:43:30 PM 44.1430 -122.4980 357° North 494 568 38,000  Level FlightAware ADS-B
Mon 08:44:06 PM 44.2260 -122.5030 358° North 495 570 38,000  Level FlightAware ADS-B
Mon 08:44:38 PM 44.2990 -122.5070 358° North 496 571 38,000  Level FlightAware ADS-B
Mon 08:45:15 PM 44.3840 -122.5120 358° North 497 572 38,000  Level FlightAware ADS-B
Mon 08:45:46 PM 44.4550 -122.5160 358° North 497 572 38,000  Level FlightAware ADS-B
Mon 08:46:24 PM 44.5420 -122.5200 358° North 496 571 38,000  Level FlightAware ADS-B
Mon 08:47:00 PM 44.6250 -122.5250 358° North 484 557 38,000  Level FlightAware ADS-B
Mon 08:47:36 PM 44.7040 -122.5300 357° North 482 555 38,000  Level FlightAware ADS-B
Mon 08:48:08 PM 44.7750 -122.5340 358° North 481 554 38,000  Level FlightAware ADS-B
Mon 08:48:44 PM 44.8540 -122.5390 357° North 480 552 38,000  Level FlightAware ADS-B
Mon 08:49:20 PM 44.9350 -122.5440 357° North 475 547 38,000  Level FlightAware ADS-B
Mon 08:49:41 PM 44.9824 -122.5470 357° North 473 544 38,000  Level FlightAware ADS-B
Mon 08:50:14 PM 45.0535 -122.5510 358° North 472 543 38,000  Level FlightAware ADS-B
Mon 08:50:45 PM 45.1205 -122.5550 358° North 470 541 38,000  Level FlightAware ADS-B
Mon 08:51:16 PM 45.1881 -122.5590 358° North 468 539 38,000  Level FlightAware ADS-B
Mon 08:51:49 PM 45.2596 -122.5630 358° North 467 537 38,000  Level FlightAware ADS-B
Mon 08:52:23 PM 45.3318 -122.5670 358° North 467 537 38,000  Level FlightAware ADS-B
Mon 08:53:00 PM 45.4124 -122.5720 358° North 467 537 38,000  Level FlightAware ADS-B
Mon 08:53:33 PM 45.4846 -122.5760 358° North 468 539 38,000 -857 Level FlightAware ADS-B
Mon 08:54:03 PM 45.5484 -122.5800 357° North 468 539 37,100 -2,066 Descending FlightAware ADS-B
Mon 08:54:34 PM 45.6138 -122.5840 358° North 457 526 35,900 -2,516 Descending FlightAware ADS-B
Mon 08:55:05 PM 45.6789 -122.5880 358° North 460 529 34,500 -2,786 Descending FlightAware ADS-B
Mon 08:55:30 PM 45.7311 -122.5910 358° North 462 532 33,300 -2,857 Descending FlightAware ADS-B
Mon 08:55:47 PM 45.7680 -122.5970 354° North 460 529 32,500 -2,936 Descending FlightAware ADS-B
Mon 08:56:17 PM 45.8313 -122.6130 350° North 462 532 31,000 -2,557 Descending FlightAware ADS-B
Mon 08:56:48 PM 45.8946 -122.6280 351° North 454 522 29,900 -2,164 Descending FlightAware ADS-B
Mon 08:57:18 PM 45.9571 -122.6430 351° North 447 514 28,800 -2,164 Descending FlightAware ADS-B
Mon 08:57:49 PM 46.0186 -122.6590 350° North 438 504 27,700 -2,066 Descending FlightAware ADS-B
Mon 08:58:19 PM 46.0788 -122.6740 350° North 429 494 26,700 -2,100 Descending FlightAware ADS-B
Mon 08:58:49 PM 46.1373 -122.6870 351° North 423 487 25,600 -2,400 Descending FlightAware ADS-B
Mon 08:59:19 PM 46.1955 -122.6980 353° North 422 486 24,300 -2,066 Descending FlightAware ADS-B
Mon 08:59:50 PM 46.2530 -122.7090 352° North 406 467 23,500 -2,694 Descending FlightAware ADS-B
Mon 09:00:08 PM 46.2887 -122.7160 352° North 419 482 22,100 -4,600 Descending FlightAware ADS-B
Mon 09:00:20 PM 46.3104 -122.7180 356° North 432 497 21,200 -4,500 Descending FlightAware ADS-B
Mon 09:00:24 PM 46.3204 -122.7180 360° North 435 501 20,900 -1,909 Descending FlightAware ADS-B
Mon 09:00:42 PM 46.3550 -122.7140 North 425 489 20,500 -1,250 Descending FlightAware ADS-B
Mon 09:01:12 PM 46.4112 -122.7010 North 399 459 19,900 -1,500 Descending FlightAware ADS-B
Mon 09:01:42 PM 46.4653 -122.6870 10° North 386 444 19,000 -2,066 Descending FlightAware ADS-B
Mon 09:02:13 PM 46.5178 -122.6740 10° North 379 436 17,800 -2,557 Descending FlightAware ADS-B
Mon 09:02:43 PM 46.5697 -122.6600 11° North 380 437 16,400 -2,737 Descending FlightAware ADS-B
Mon 09:03:10 PM 46.6170 -122.6480 10° North 374 430 15,200 -2,483 Descending FlightAware ADS-B
Mon 09:03:41 PM 46.6688 -122.6350 10° North 364 419 14,000 -2,276 Descending FlightAware ADS-B
Mon 09:04:08 PM 46.7126 -122.6240 10° North 357 411 13,000 -2,000 Descending FlightAware ADS-B
Mon 09:04:38 PM 46.7606 -122.6110 11° North 347 399 12,100 -1,600 Descending FlightAware ADS-B
Mon 09:05:08 PM 46.8078 -122.5980 11° North 335 386 11,400 -1,000 Descending FlightAware ADS-B
Mon 09:05:38 PM 46.8521 -122.5870 10° North 310 357 11,100 -500 Descending FlightAware ADS-B
Mon 09:06:08 PM 46.8929 -122.5780 North 286 329 10,900 -500 Descending FlightAware ADS-B
Mon 09:06:14 PM 46.8995 -122.5760 12° North 283 326 10,800 -600 Descending FlightAware ADS-B
Mon 09:06:18 PM 46.9046 -122.5740 15° North 281 323 10,800 -667 Level FlightAware ADS-B
Mon 09:06:23 PM 46.9106 -122.5700 24° Northeast 278 320 10,700 -600 Descending FlightAware ADS-B
Mon 09:06:28 PM 46.9172 -122.5650 27° Northeast 274 315 10,700  Level FlightAware ADS-B
Mon 09:06:35 PM 46.9241 -122.5590 31° Northeast 271 312 10,700 -545 Level FlightAware ADS-B
Mon 09:06:39 PM 46.9283 -122.5540 39° Northeast 267 307 10,600 -882 Descending FlightAware ADS-B
Mon 09:07:09 PM 46.9548 -122.5190 42° Northeast 252 290 10,200 -1,043 Descending FlightAware ADS-B
Mon 09:07:25 PM 46.9680 -122.5020 41° Northeast 251 289 9,800 -1,548 Descending FlightAware ADS-B
Mon 09:07:40 PM 46.9810 -122.4850 42° Northeast 251 289 9,400 -1,400 Descending FlightAware ADS-B
Mon 09:07:55 PM 46.9938 -122.4680 42° Northeast 250 288 9,100 -1,333 Descending FlightAware ADS-B
Mon 09:08:07 PM 47.0040 -122.4540 43° Northeast 248 285 8,800 -1,500 Descending FlightAware ADS-B
Mon 09:08:11 PM 47.0082 -122.4490 39° Northeast 247 284 8,700 -1,333 Descending FlightAware ADS-B
Mon 09:08:16 PM 47.0125 -122.4440 38° Northeast 246 283 8,600 -1,500 Descending FlightAware ADS-B
Mon 09:08:31 PM 47.0265 -122.4300 34° Northeast 244 281 8,200 -1,364 Descending FlightAware ADS-B
Mon 09:08:38 PM 47.0325 -122.4240 34° Northeast 244 281 8,100 -1,000 Descending FlightAware ADS-B
Mon 09:08:43 PM 47.0374 -122.4190 35° Northeast 244 281 8,000 -1,500 Descending FlightAware ADS-B
Mon 09:08:58 PM 47.0522 -122.4070 29° Northeast 244 281 7,600 -1,600 Descending FlightAware ADS-B
Mon 09:09:13 PM 47.0674 -122.3950 28° Northeast 243 280 7,200 -1,500 Descending FlightAware ADS-B
Mon 09:09:22 PM 47.0763 -122.3880 28° Northeast 242 278 7,000 -1,200 Descending FlightAware ADS-B
Mon 09:09:38 PM 47.0912 -122.3760 29° Northeast 239 275 6,700 -1,286 Descending FlightAware ADS-B
Mon 09:09:50 PM 47.1026 -122.3660 31° Northeast 237 273 6,400 -1,333 Descending FlightAware ADS-B
Mon 09:10:05 PM 47.1167 -122.3540 30° Northeast 238 274 6,100 -1,400 Descending FlightAware ADS-B
Mon 09:10:20 PM 47.1314 -122.3410 31° Northeast 237 273 5,700 -1,355 Descending FlightAware ADS-B
Mon 09:10:36 PM 47.1462 -122.3290 29° Northeast 234 269 5,400 -1,161 Descending FlightAware ADS-B
Mon 09:10:51 PM 47.1603 -122.3170 30° Northeast 226 260 5,100 -947 Descending FlightAware ADS-B
Mon 09:10:55 PM 47.1644 -122.3140 26° Northeast 222 255 5,100 -750 Level FlightAware ADS-B
Mon 09:10:59 PM 47.1675 -122.3120 24° Northeast 220 253 5,000 -1,714 Descending FlightAware ADS-B
Mon 09:11:02 PM 47.1711 -122.3110 11° North 217 250 4,900 -857 Descending FlightAware ADS-B
Mon 09:11:06 PM 47.1749 -122.3100 10° North 215 247 4,900 -750 Level FlightAware ADS-B
Mon 09:11:10 PM 47.1791 -122.3090 North 213 245 4,800 -857 Descending FlightAware ADS-B
Mon 09:11:20 PM 47.1880 -122.3090 360° North 208 239 4,700 -947 Descending FlightAware ADS-B
Mon 09:11:29 PM 47.1973 -122.3090 360° North 203 234 4,500 -960 Descending FlightAware ADS-B
Mon 09:11:45 PM 47.2115 -122.3090 360° North 198 228 4,300 -857 Descending FlightAware ADS-B
Mon 09:11:57 PM 47.2228 -122.3090 360° North 194 223 4,100 -857 Descending FlightAware ADS-B
Mon 09:12:13 PM 47.2366 -122.3090 360° North 196 226 3,900 -1,000 Descending FlightAware ADS-B
Mon 09:12:27 PM 47.2501 -122.3100 357° North 201 231 3,600 -1,200 Descending FlightAware ADS-B
Mon 09:12:38 PM 47.2606 -122.3100 360° North 202 232 3,400 -1,111 Descending FlightAware ADS-B
Mon 09:12:54 PM 47.2746 -122.3100 360° North 202 232 3,100 -1,111 Descending FlightAware ADS-B
Mon 09:13:05 PM 47.2855 -122.3100 360° North 200 230 2,900 -900 Descending FlightAware ADS-B
Mon 09:13:14 PM 47.2932 -122.3090 North 197 227 2,800 -1,000 Descending FlightAware ADS-B
Mon 09:13:29 PM 47.3070 -122.3090 360° North 196 226 2,500 -923 Descending FlightAware ADS-B
Mon 09:13:40 PM 47.3175 -122.3090 360° North 194 223 2,400 -857 Descending FlightAware ADS-B
Mon 09:13:50 PM 47.3256 -122.3090 360° North 190 219 2,200 -1,059 Descending FlightAware ADS-B
Mon 09:13:57 PM 47.3318 -122.3090 360° North 185 213 2,100 -857 Descending FlightAware ADS-B
Mon 09:14:04 PM 47.3379 -122.3090 360° North 177 204 2,000 -947 Descending FlightAware ADS-B
Mon 09:14:16 PM 47.3470 -122.3090 360° North 169 194 1,800 -960 Descending FlightAware ADS-B
Mon 09:14:29 PM 47.3573 -122.3090 360° North 155 178 1,600 -857 Descending FlightAware ADS-B
Mon 09:14:37 PM 47.3628 -122.3090 360° North 151 174 1,500 -706 Descending FlightAware ADS-B
Mon 09:14:46 PM 47.3692 -122.3080 North 149 171 1,400 -667 Descending FlightAware ADS-B
Mon 09:14:55 PM 47.3754 -122.3080 360° North 149 171 1,300 -706 Descending FlightAware ADS-B
Mon 09:15:03 PM 47.3809 -122.3080 360° North 149 171 1,200 -545 Descending FlightAware ADS-B
Mon 09:15:06 PM 47.3829 -122.3080 360° North 150 173 1,200 -545 Level FlightAware ADS-B
Mon 09:15:14 PM 47.3884 -122.3080 360° North 153 176 1,100 -750 Descending FlightAware ADS-B
Mon 09:15:30 PM 47.3995 -122.3080 360° North 156 180 900 -800 Descending FlightAware ADS-B
Mon 09:15:44 PM 47.4095 -122.3080 360° North 156 180 700 -720 Descending FlightAware ADS-B
Mon 09:15:55 PM 47.4180 -122.3080 360° North 158 182 600 -857 Descending FlightAware ADS-B
Mon 09:15:58 PM 47.4203 -122.3080 360° North 158 182 500 -667 Descending FlightAware ADS-B
Mon 09:16:04 PM 47.4242 -122.3080 360° North 157 181 500 -102 Level FlightAware ADS-B
Mon 09:16:57 PM 47.4550 -122.3092 360° North 156 180 400 -113 Descending Seattle Center

Login

Don't have an account? Register now (free) for customized features, flight alerts, and more!